Nearby METAR Reports

 

EGEO - Oban, United Kingdom
Distance from station: SSW 18mi, 30km
Updated: 21/10/2021 12:20
Few Clouds
Few Clouds
 Wind from NW
Wind: NW 16 mph , 26 km/h
Temperature: 8°C
Wind Chill: 4°C
Dew Point: 3°C
Humidity: 71%
Barometer: 1010 hPa
Clouds: Few Clouds
Visibility: 6 miles , 10 km
Cloud details: Few Clouds 671 m
2021/10/21 11:20 EGEO 211120Z 32014KT 9999 FEW022 08/03 Q1010 RESHGS RESHRA
EGPU - Tiree, United Kingdom
Distance from station: WSW 64mi, 103km
Updated: 21/10/2021 12:20
Partly cloudy
Partly cloudy
 Wind from NNW
Wind: NNW 21 mph , 33 km/h
Temperature: 9°C
Wind Chill: 5°C
Dew Point: 4°C
Humidity: 71%
Barometer: 1012 hPa
Clouds: Partly cloudy
Visibility: 6 miles , 10 km
Cloud details: Few Clouds 1006 m
Partly cloudy 1280 m
2021/10/21 11:20 EGPU 211120Z 33018KT 9999 FEW033 SCT042 09/04 Q1012
EGPF - Glasgow, United Kingdom
Distance from station: SSE 66mi, 107km
Updated: 21/10/2021 12:20
Clear
Clear
 Wind from WNW
Wind: WNW 18 mph , 30 km/h
Temperature: 10°C
Wind Chill: 7°C
Dew Point: 2°C
Humidity: 58%
Barometer: 1010 hPa
Clouds: Clear
Visibility: 6 miles , 10 km
2021/10/21 11:20 EGPF 211120Z AUTO 29016KT 9999 NCD 10/02 Q1010
 
EGPE - Inverness, United Kingdom
Distance from station: NE 71mi, 114km
Updated: 21/10/2021 12:20
Nearby showers, Partly cloudy
Nearby showers, Partly cloudy
 Wind from WSW
Wind: WSW 13 mph , 20 km/h
Temperature: 8°C
Wind Chill: 4°C
Dew Point: 4°C
Humidity: 76%
Barometer: 1007 hPa
Summary: Nearby Showers
Clouds: Partly cloudy
Visibility: 6 miles , 10 km
Cloud details: Few Clouds 305 m
Partly cloudy 1036 m
2021/10/21 11:20 EGPE 211120Z 25011KT 9999 VCSH FEW010 SCT034 08/04 Q1007
EGPI - Islay/Port Ellen, United Kingdom
Distance from station: SSW 81mi, 131km
Updated: 21/10/2021 12:20
Partly cloudy
Partly cloudy
 Wind from NW
Wind: NW 14 mph , 22 km/h
Temperature: 10°C
Wind Chill: 7°C
Dew Point: 5°C
Humidity: 71%
Barometer: 1012 hPa
Clouds: Partly cloudy
Visibility: 6 miles , 10 km
Cloud details: Partly cloudy 1463 m
2021/10/21 11:20 EGPI 211120Z 31012KT 9999 SCT048 10/05 Q1012
EGPN - Dundee/Riverside, United Kingdom
Distance from station: E 86mi, 138km
Updated: 21/10/2021 12:20
Partly cloudy
Partly cloudy
 Wind from W
Wind: W 12 mph , 19 km/h
Temperature: 9°C
Wind Chill: 6°C
Dew Point: 2°C
Humidity: 62%
Barometer: 1008 hPa
Clouds: Partly cloudy
Visibility: 6 miles , 10 km
Cloud details: Partly cloudy 1341 m
2021/10/21 11:20 EGPN 211120Z 27010KT 9999 SCT044 09/02 Q1008
 
EGPK - Prestwick, United Kingdom
Distance from station: SSE 88mi, 141km
Updated: 21/10/2021 12:20
Clear
Clear
 Wind from NW
Wind: NW 17 mph , 28 km/h
Temperature: 10°C
Wind Chill: 7°C
Dew Point: 3°C
Humidity: 62%
Barometer: 1011 hPa
Summary: Clear
Visibility: greater than 7 miles , 10 km
2021/10/21 11:20 EGPK 211120Z 31015KT CAVOK 10/03 Q1011
EGPH - Edinburgh, United Kingdom
Distance from station: SE 89mi, 143km
Updated: 21/10/2021 12:20
Clear
Clear
 Wind from WNW
Wind: WNW 10 mph , 17 km/h
Temperature: 8°C
Wind Chill: 5°C
Dew Point: 1°C
Humidity: 62%
Barometer: 1009 hPa
Summary: Clear
Visibility: greater than 7 miles , 10 km
2021/10/21 11:20 EGPH 211120Z 29009KT 260V320 CAVOK 08/01 Q1009
EGQK - RAF Kinloss, United Kingdom
Distance from station: NE 90mi, 144km
Updated: 21/10/2021 11:50
Few Clouds
Few Clouds
 Wind from varies
Wind: varies 0 mph , 0 km/h
Temperature: 8°C
Dew Point: 4°C
Humidity: 76%
Barometer: 1006 hPa
Clouds: Few Clouds
Visibility: 6 miles , 10 km
Cloud details: Few Clouds 2438 m
2021/10/21 10:50 EGQK 211050Z AUTO /////KT 9999 FEW080/// 08/04 Q1006
 
EGEC - Campbeltown, United Kingdom
Distance from station: S 90mi, 145km
Updated: 02/10/2021 09:50
NOT Current
Clear
Clear
 Wind from SSE
Wind: SSE 8 mph , 13 km/h
Temperature: 10°C
Wind Chill: 8°C
Dew Point: 8°C
Humidity: 88%
Barometer: 990 hPa
Summary: Clear
Visibility: greater than 7 miles , 10 km
2021/10/02 08:50 EGEC 020850Z 15007KT CAVOK 10/08 Q0990
EGQA - Tain Range, United Kingdom
Distance from station: NNE 91mi, 146km
Updated: 21/10/2021 11:50
Partly cloudy
Partly cloudy
 Wind from W
Wind: W 22 mph , 35 km/h
Clouds: Partly cloudy
Visibility: 6 miles , 10 km
Cloud details: Few Clouds 549 m
Partly cloudy 762 m
2021/10/21 10:50 EGQA 211050Z 26019KT 9999 FEW018 SCT025CB 06/// Q1006 RMK BLU
EGQL - RAF Leuchars, United Kingdom
Distance from station: ESE 93mi, 149km
Updated: 21/10/2021 12:21
Clear
Clear
 Wind from W
Wind: W 16 mph , 26 km/h
Temperature: 9°C
Wind Chill: 6°C
Dew Point: 2°C
Humidity: 62%
Barometer: 1008 hPa
Summary: Clear
Visibility: greater than 7 miles , 10 km
2021/10/21 11:21 EGQL 211121Z 28014KT CAVOK 09/02 Q1008 RMK BLU
 
EGPL - Benbecula, United Kingdom
Distance from station: WNW 96mi, 154km
Updated: 21/10/2021 12:20
Nearby showers, Partly cloudy
Nearby showers, Partly cloudy
 Wind from WNW
Wind: WNW 23 mph , 37 km/h
Temperature: 9°C
Wind Chill: 4°C
Dew Point: 3°C
Humidity: 66%
Barometer: 1010 hPa
Summary: Nearby Showers
Clouds: Partly cloudy
Visibility: 6 miles , 10 km
Cloud details: Few Clouds 610 m
Partly cloudy 914 m
2021/10/21 11:20 EGPL 211120Z 30020KT 9999 VCSH FEW020 SCT030 09/03 Q1010
EGQS - RAF Lossiemouth, United Kingdom
Distance from station: NE 99mi, 160km
Updated: 21/10/2021 12:20
Mostly cloudy
Mostly cloudy
 Wind from W
Wind: W 23 mph , 37 km/h
Temperature: 8°C
Wind Chill: 3°C
Dew Point: 4°C
Humidity: 76%
Barometer: 1005 hPa
Clouds: Mostly cloudy
Visibility: 6 miles , 10 km
Cloud details: Few Clouds 671 m
Partly cloudy 3353 m
Mostly cloudy 7620 m
2021/10/21 11:20 EGQS 211120Z 28020KT 9999 FEW022 SCT110 BKN250 08/04 Q1005 TEMPO 32017G27KT 6000 SHRA SCT022 RMK BLU TEMPO WHT
EGPO - Stornoway, United Kingdom
Distance from station: NNW 111mi, 179km
Updated: 21/10/2021 12:20
Nearby showers, Partly cloudy
Nearby showers, Partly cloudy
 Wind from WNW
Wind: WNW 15 mph , 24 km/h
Temperature: 7°C
Wind Chill: 3°C
Dew Point: 4°C
Humidity: 81%
Barometer: 1008 hPa
Summary: Nearby Showers
Clouds: Partly cloudy
Visibility: 6 miles , 10 km
Cloud details: Few Clouds 610 m
Partly cloudy 792 m
2021/10/21 11:20 EGPO 211120Z 30013KT 9999 VCSH FEW020CB SCT026 07/04 Q1008
 
EGPD - Aberdeen/Dyce, United Kingdom
Distance from station: ENE 118mi, 190km
Updated: 21/10/2021 12:20
Partly cloudy
Partly cloudy
 Wind from WNW
Wind: WNW 20 mph , 31 km/h, Gust: 31 mph , 50 km/h
Temperature: 7°C
Wind Chill: 3°C
Dew Point: 2°C
Humidity: 71%
Barometer: 1005 hPa
Clouds: Partly cloudy
Visibility: 6 miles , 10 km
Cloud details: Partly cloudy 914 m
2021/10/21 11:20 EGPD 211120Z 30017G27KT 9999 SCT030 07/02 Q1005
EGAE - Eglinton/Londond, United Kingdom
Distance from station: SSW 138mi, 222km
Updated: 21/10/2021 12:20
Nearby showers, Few clouds
Nearby showers, Few clouds
 Wind from WNW
Wind: WNW 12 mph , 19 km/h
Temperature: 11°C
Dew Point: 6°C
Humidity: 72%
Barometer: 1014 hPa
Summary: Nearby Showers
Clouds: Few Clouds
Visibility: 6 miles , 10 km
Cloud details: Few Clouds 762 m
2021/10/21 11:20 EGAE 211120Z 29010KT 9999 VCSH FEW025 11/06 Q1014
EGPC - Wick, United Kingdom
Distance from station: NNE 144mi, 232km
Updated: 21/10/2021 12:20
Nearby showers, Partly cloudy
Nearby showers, Partly cloudy
 Wind from WNW
Wind: WNW 22 mph , 35 km/h
Temperature: 8°C
Wind Chill: 3°C
Dew Point: 3°C
Humidity: 71%
Barometer: 1003 hPa
Summary: Nearby Showers
Clouds: Partly cloudy
Visibility: 6 miles , 10 km
Cloud details: Partly cloudy 610 m
2021/10/21 11:20 EGPC 211120Z 30019KT 9999 VCSH SCT020CB 08/03 Q1003

Metar display script from Saratoga-Weather.org